createdAt,value
2019-02-17T00:05:33.770Z,0.10
2019-02-17T00:15:35.179Z,0.10
2019-02-17T00:25:37.277Z,-0.20
2019-02-17T00:35:38.574Z,-0.20
2019-02-17T00:45:40.015Z,-0.30
2019-02-17T00:55:42.307Z,-0.30
2019-02-17T01:05:44.403Z,-0.30
2019-02-17T01:15:45.750Z,-0.40
2019-02-17T01:25:47.016Z,-0.50
2019-02-17T01:35:48.316Z,-0.40
2019-02-17T01:45:49.789Z,-0.50
2019-02-17T01:55:51.089Z,-0.60
2019-02-17T02:05:52.365Z,-0.60
2019-02-17T02:15:53.652Z,-0.50
2019-02-17T02:25:54.940Z,-0.60
2019-02-17T02:35:56.254Z,-0.60
2019-02-17T02:45:57.549Z,-0.70
2019-02-17T02:55:58.857Z,-0.90
2019-02-17T03:06:00.135Z,-0.90
2019-02-17T03:16:01.435Z,-1.00
2019-02-17T03:26:02.685Z,-1.00
2019-02-17T03:36:03.960Z,-1.10
2019-02-17T03:46:05.229Z,-1.00
2019-02-17T07:01:06.540Z,0.10
2019-02-17T07:11:07.801Z,1.50
2019-02-17T07:21:09.072Z,2.70
2019-02-17T07:31:10.349Z,3.60
2019-02-17T07:41:11.626Z,4.70
2019-02-17T07:51:12.901Z,6.50
2019-02-17T08:01:14.140Z,9.00
2019-02-17T08:11:15.557Z,10.40
2019-02-17T08:21:16.807Z,10.10
2019-02-17T08:31:18.081Z,11.50
2019-02-17T08:41:20.116Z,13.40
2019-02-17T08:51:21.380Z,13.40
2019-02-17T09:01:23.418Z,18.20
2019-02-17T09:11:24.699Z,18.10
2019-02-17T09:21:25.981Z,20.50
2019-02-17T09:31:28.027Z,21.90
2019-02-17T09:41:29.310Z,21.80
2019-02-17T09:51:30.556Z,22.10
2019-02-17T10:01:31.812Z,20.10
2019-02-17T10:11:33.060Z,20.00
2019-02-17T10:21:34.400Z,24.50
2019-02-17T10:31:36.401Z,19.50
2019-02-17T10:41:37.691Z,19.50
2019-02-17T10:51:39.736Z,18.80
2019-02-17T11:01:41.031Z,18.70
2019-02-17T11:11:42.317Z,19.50
2019-02-17T11:21:43.596Z,17.10
2019-02-17T11:31:45.633Z,15.60
2019-02-17T11:41:46.962Z,15.50
2019-02-17T11:51:48.244Z,15.40
2019-02-17T12:01:49.519Z,15.10
2019-02-17T12:11:50.769Z,15.50
2019-02-17T12:32:02.367Z,15.60
2019-02-17T12:42:03.628Z,15.60
2019-02-17T12:52:04.886Z,15.70
2019-02-17T13:02:07.024Z,15.70
2019-02-17T13:12:08.305Z,15.70
2019-02-17T13:22:09.584Z,15.60
2019-02-17T13:32:11.620Z,15.60
2019-02-17T13:42:12.897Z,15.60
2019-02-17T13:52:15.088Z,15.40
2019-02-17T14:02:16.357Z,15.30
2019-02-17T14:12:17.640Z,15.30
2019-02-17T14:22:18.919Z,15.20
2019-02-17T14:32:20.169Z,15.00
2019-02-17T14:42:21.453Z,14.90
2019-02-17T14:52:22.743Z,14.60
2019-02-17T15:02:24.008Z,14.40
2019-02-17T15:12:25.265Z,14.20
2019-02-17T15:22:27.311Z,13.40
2019-02-17T15:32:28.578Z,13.50
2019-02-17T15:42:30.601Z,12.40
2019-02-17T15:52:32.640Z,11.70
2019-02-17T16:02:33.920Z,11.60
2019-02-17T16:12:43.689Z,10.70
2019-02-17T16:22:44.964Z,10.00
2019-02-17T16:32:46.245Z,9.30
2019-02-17T16:42:47.528Z,8.60
2019-02-17T16:52:48.818Z,8.30
2019-02-17T17:02:50.073Z,8.10
2019-02-17T17:12:52.113Z,7.50
2019-02-17T17:22:53.358Z,7.40
2019-02-17T17:32:54.612Z,6.80
2019-02-17T17:42:55.853Z,6.30
2019-02-17T17:52:57.128Z,6.00
2019-02-17T18:02:58.396Z,5.50
2019-02-17T18:12:59.672Z,5.00
2019-02-17T18:23:01.724Z,4.50
2019-02-17T18:33:02.997Z,4.50
2019-02-17T18:43:04.269Z,4.20
2019-02-17T18:53:08.434Z,3.60
2019-02-17T19:13:18.821Z,3.50
2019-02-17T19:23:20.844Z,3.00
2019-02-17T19:33:26.407Z,3.00
2019-02-17T19:43:27.696Z,2.80
2019-02-17T19:53:28.964Z,2.40
2019-02-17T20:03:30.260Z,2.50
2019-02-17T20:13:31.561Z,2.40
2019-02-17T20:23:32.934Z,2.10
2019-02-17T20:33:34.164Z,1.80
2019-02-17T20:43:36.552Z,1.70
2019-02-17T20:53:37.841Z,1.80
2019-02-17T21:03:39.119Z,1.60
2019-02-17T21:13:40.447Z,1.50
2019-02-17T21:23:41.755Z,1.50
2019-02-17T21:33:42.997Z,1.40
2019-02-17T21:43:45.017Z,1.00
2019-02-17T21:53:46.288Z,0.90
2019-02-17T22:03:47.577Z,0.80
2019-02-17T22:13:49.013Z,0.90
2019-02-17T22:23:51.181Z,0.60
2019-02-17T22:33:52.505Z,0.60
2019-02-17T22:43:53.782Z,0.60
2019-02-17T22:53:55.241Z,0.50
2019-02-17T23:03:56.524Z,0.60
2019-02-17T23:13:57.824Z,0.40
2019-02-17T23:23:59.104Z,0.40
2019-02-17T23:34:00.380Z,0.30
2019-02-17T23:44:01.641Z,0.10
2019-02-17T23:54:02.923Z,0.00
